Time;durP1;ratioP1;P1;durP2;ratioP2;P2;SDS_P1;SDS_P2;PMS_P1;PMS_P2;Temp;Humidity;BMP_temperature;BMP_pressure;BME280_temperature;BME280_humidity;BME280_pressure;Samples;Min_cycle;Max_cycle;Signal;HPM_P1;HPM_P2
2022/07/11 00:02:23;;;;;;;297.93;145.73;;;;;;;;;;5024219;28;20212;-50
2022/07/11 00:04:49;;;;;;;266.13;135.67;;;;;;;;;;5028828;28;20218;-49
2022/07/11 00:07:15;;;;;;;273.23;139.47;;;;;;;;;;5026248;28;20224;-49
2022/07/11 00:09:41;;;;;;;279.03;142.07;;;;;;;;;;5022913;28;20225;-49
2022/07/11 00:12:08;;;;;;;283.90;141.83;;;;;;;;;;5027422;28;20255;-49
2022/07/11 00:14:34;;;;;;;285.80;142.47;;;;;;;;;;5026831;28;20216;-49
2022/07/11 00:17:00;;;;;;;285.73;144.40;;;;;;;;;;5026691;28;20220;-49
2022/07/11 00:19:26;;;;;;;284.93;143.60;;;;;;;;;;5026235;28;20311;-49
2022/07/11 00:21:53;;;;;;;276.70;139.80;;;;;;;;;;5026649;28;20244;-49
2022/07/11 00:24:19;;;;;;;251.87;131.10;;;;;;;;;;5026719;28;20873;-49
2022/07/11 00:26:46;;;;;;;290.17;145.70;;;;;;;;;;5033405;28;20201;-49
2022/07/11 00:29:12;;;;;;;285.63;142.20;;;;;;;;;;5026487;28;20223;-48
2022/07/11 00:31:38;;;;;;;274.40;137.33;;;;;;;;;;5020449;28;20216;-49
2022/07/11 00:34:04;;;;;;;272.30;137.60;;;;;;;;;;5026294;28;20580;-49
2022/07/11 00:36:31;;;;;;;284.63;146.17;;;;;;;;;;5025774;28;20196;-49
2022/07/11 00:38:57;;;;;;;264.57;137.10;;;;;;;;;;5026684;28;20183;-49
2022/07/11 00:41:23;;;;;;;280.50;140.70;;;;;;;;;;5011207;28;20690;-48
2022/07/11 00:43:53;;;;;;;255.73;134.20;;;;;;;;;;5018763;28;20208;-48
2022/07/11 00:46:19;;;;;;;271.90;138.40;;;;;;;;;;5014728;28;20622;-49
2022/07/11 00:48:45;;;;;;;256.13;132.03;;;;;;;;;;5012669;28;20298;-49
2022/07/11 00:51:12;;;;;;;248.03;130.40;;;;;;;;;;5013335;28;20215;-48
2022/07/11 00:53:39;;;;;;;234.90;127.10;;;;;;;;;;5012939;28;20208;-48
2022/07/11 00:56:06;;;;;;;229.40;126.20;;;;;;;;;;5019035;28;20223;-48
2022/07/11 00:58:32;;;;;;;212.03;118.97;;;;;;;;;;5023052;28;20292;-48
2022/07/11 01:00:58;;;;;;;212.57;118.90;;;;;;;;;;5030713;28;20323;-49
2022/07/11 01:03:24;;;;;;;206.77;118.53;;;;;;;;;;5032471;28;20184;-48
2022/07/11 01:05:50;;;;;;;200.17;116.60;;;;;;;;;;5032989;28;20168;-49
2022/07/11 01:08:16;;;;;;;173.53;109.90;;;;;;;;;;5032227;28;20300;-48
2022/07/11 01:10:42;;;;;;;204.93;119.30;;;;;;;;;;5019546;28;20213;-48
2022/07/11 01:13:08;;;;;;;206.23;117.57;;;;;;;;;;5025694;28;20684;-48
2022/07/11 01:15:35;;;;;;;197.60;114.90;;;;;;;;;;5012522;28;20537;-51
2022/07/11 01:18:01;;;;;;;207.63;120.90;;;;;;;;;;5012398;28;20704;-48
2022/07/11 01:20:27;;;;;;;195.63;114.33;;;;;;;;;;5012491;28;20681;-48
2022/07/11 01:22:54;;;;;;;200.03;115.07;;;;;;;;;;5010787;28;20208;-48
2022/07/11 01:25:30;;;;;;;181.67;111.77;;;;;;;;;;5000809;28;20271;-49
2022/07/11 01:28:03;;;;;;;188.83;113.00;;;;;;;;;;5012017;28;20307;-48
2022/07/11 01:30:30;;;;;;;189.83;114.10;;;;;;;;;;5012556;28;20212;-48
2022/07/11 01:32:57;;;;;;;247.27;131.10;;;;;;;;;;5016049;28;20215;-49
2022/07/11 01:35:23;;;;;;;329.37;150.00;;;;;;;;;;5021902;28;20292;-48
2022/07/11 01:37:49;;;;;;;327.10;149.33;;;;;;;;;;5012342;28;20538;-48
2022/07/11 01:40:15;;;;;;;316.63;147.33;;;;;;;;;;5010790;28;20217;-48
2022/07/11 01:42:41;;;;;;;330.33;152.73;;;;;;;;;;5014988;28;20220;-48
2022/07/11 01:45:07;;;;;;;294.13;137.93;;;;;;;;;;5015787;28;20177;-48
2022/07/11 01:47:33;;;;;;;322.27;148.40;;;;;;;;;;4992437;28;20284;-48
2022/07/11 01:49:59;;;;;;;312.70;143.93;;;;;;;;;;5006791;28;20247;-48
2022/07/11 01:52:26;;;;;;;295.17;139.20;;;;;;;;;;5010376;28;20228;-49
2022/07/11 01:54:52;;;;;;;308.30;141.47;;;;;;;;;;5004988;28;20224;-48
2022/07/11 01:57:18;;;;;;;323.47;147.27;;;;;;;;;;5014285;28;20215;-49
2022/07/11 01:59:44;;;;;;;309.27;141.40;;;;;;;;;;5013468;28;20534;-48
2022/07/11 02:02:10;;;;;;;304.80;139.93;;;;;;;;;;5014484;28;20213;-48
2022/07/11 02:04:36;;;;;;;292.43;135.30;;;;;;;;;;5011168;28;20237;-48
2022/07/11 02:07:02;;;;;;;312.40;143.30;;;;;;;;;;5011360;28;20209;-48
2022/07/11 02:09:28;;;;;;;325.80;151.93;;;;;;;;;;5026075;28;20208;-49
2022/07/11 02:11:53;;;;;;;307.10;140.60;;;;;;;;;;5012081;28;20181;-49
2022/07/11 02:14:19;;;;;;;310.03;139.60;;;;;;;;;;5012764;28;20586;-48
2022/07/11 02:16:45;;;;;;;301.60;141.30;;;;;;;;;;5010892;28;20684;-48
2022/07/11 02:19:11;;;;;;;320.07;147.97;;;;;;;;;;5005890;28;20692;-48
2022/07/11 02:21:38;;;;;;;312.00;143.57;;;;;;;;;;5007585;28;20221;-48
2022/07/11 02:24:04;;;;;;;286.43;132.90;;;;;;;;;;5003485;28;20562;-48
2022/07/11 02:26:30;;;;;;;305.37;140.67;;;;;;;;;;5002533;28;20213;-48
2022/07/11 02:28:56;;;;;;;292.33;136.70;;;;;;;;;;5008614;28;20233;-48
2022/07/11 02:31:22;;;;;;;315.63;145.30;;;;;;;;;;5010743;28;20299;-48
2022/07/11 02:33:48;;;;;;;301.20;138.60;;;;;;;;;;5012767;28;20620;-48
2022/07/11 02:36:14;;;;;;;312.20;145.50;;;;;;;;;;5011091;28;20189;-48
2022/07/11 02:38:41;;;;;;;313.00;142.50;;;;;;;;;;5021438;28;20208;-48
2022/07/11 02:41:06;;;;;;;310.23;141.50;;;;;;;;;;5012535;28;20220;-48
2022/07/11 02:43:32;;;;;;;319.10;145.10;;;;;;;;;;5009076;28;20733;-48
2022/07/11 02:45:58;;;;;;;311.47;144.23;;;;;;;;;;5009981;28;20244;-48
2022/07/11 02:48:24;;;;;;;317.70;145.77;;;;;;;;;;5009961;28;20177;-49
2022/07/11 02:50:51;;;;;;;300.50;138.67;;;;;;;;;;5005111;28;20204;-49
2022/07/11 02:53:17;;;;;;;305.77;140.10;;;;;;;;;;5008406;28;20716;-49
2022/07/11 02:55:43;;;;;;;324.13;146.70;;;;;;;;;;5010157;28;20209;-48
2022/07/11 02:58:09;;;;;;;297.37;136.87;;;;;;;;;;4999508;28;20830;-49
2022/07/11 03:00:35;;;;;;;295.27;137.87;;;;;;;;;;5006170;28;20812;-49
2022/07/11 03:03:01;;;;;;;317.43;143.70;;;;;;;;;;4994774;28;20188;-49
2022/07/11 03:05:27;;;;;;;319.17;143.90;;;;;;;;;;5017427;28;20577;-48
2022/07/11 03:07:53;;;;;;;315.50;143.17;;;;;;;;;;5018539;28;20311;-49
2022/07/11 03:10:19;;;;;;;289.70;134.10;;;;;;;;;;5012236;28;20311;-49
2022/07/11 03:12:45;;;;;;;289.60;133.93;;;;;;;;;;5004052;28;20220;-49
2022/07/11 03:15:11;;;;;;;308.57;139.47;;;;;;;;;;5009163;28;20212;-49
2022/07/11 03:17:38;;;;;;;306.43;141.30;;;;;;;;;;5009857;28;20228;-49
2022/07/11 03:20:04;;;;;;;288.40;134.20;;;;;;;;;;5010079;28;20685;-49
2022/07/11 03:22:30;;;;;;;310.90;142.27;;;;;;;;;;5005940;28;20275;-49
2022/07/11 03:24:56;;;;;;;309.90;141.93;;;;;;;;;;5009723;28;20216;-49
2022/07/11 03:27:22;;;;;;;314.63;142.97;;;;;;;;;;5010153;28;20211;-49
2022/07/11 03:29:48;;;;;;;301.03;136.10;;;;;;;;;;5010575;28;20636;-49
2022/07/11 03:32:14;;;;;;;279.50;129.13;;;;;;;;;;5010294;28;20216;-49
2022/07/11 03:35:40;;;;;;;307.27;137.17;;;;;;;;;;5008975;28;20212;-49
2022/07/11 03:37:26;;;;;;;319.87;147.50;;;;;;;;;;5010212;28;20224;-49
2022/07/11 03:39:52;;;;;;;314.73;141.17;;;;;;;;;;5011773;28;20278;-49
2022/07/11 03:42:18;;;;;;;318.63;143.20;;;;;;;;;;5017189;28;20257;-49
2022/07/11 03:44:44;;;;;;;291.70;133.47;;;;;;;;;;5003801;28;20746;-49
2022/07/11 03:47:10;;;;;;;313.57;143.23;;;;;;;;;;5024362;28;20353;-48
2022/07/11 03:49:36;;;;;;;315.53;143.87;;;;;;;;;;5026292;28;20255;-49
2022/07/11 03:52:02;;;;;;;314.47;144.23;;;;;;;;;;5010027;28;20246;-49
2022/07/11 03:54:28;;;;;;;315.53;145.40;;;;;;;;;;5010211;28;20510;-49
2022/07/11 03:56:54;;;;;;;334.43;153.57;;;;;;;;;;5000683;28;20205;-52
2022/07/11 03:59:20;;;;;;;353.97;160.40;;;;;;;;;;4993538;28;20224;-52
2022/07/11 04:01:46;;;;;;;317.37;142.30;;;;;;;;;;4987228;28;20210;-52
2022/07/11 04:04:12;;;;;;;313.23;142.73;;;;;;;;;;4994496;28;20309;-52
2022/07/11 04:06:38;;;;;;;358.37;165.07;;;;;;;;;;4992771;28;20592;-51
2022/07/11 04:09:04;;;;;;;332.67;150.57;;;;;;;;;;4992630;28;20212;-52
2022/07/11 04:11:30;;;;;;;391.03;168.60;;;;;;;;;;4990060;28;20212;-52
2022/07/11 04:13:56;;;;;;;369.00;161.63;;;;;;;;;;4990806;28;20221;-52
2022/07/11 04:16:22;;;;;;;356.37;164.30;;;;;;;;;;4989376;28;20213;-51
2022/07/11 04:18:48;;;;;;;421.67;178.13;;;;;;;;;;4994143;28;20244;-52
2022/07/11 04:21:14;;;;;;;356.90;154.77;;;;;;;;;;4990070;28;20558;-52
2022/07/11 04:23:40;;;;;;;348.67;156.07;;;;;;;;;;4996505;28;20213;-52
2022/07/11 04:26:06;;;;;;;339.33;157.70;;;;;;;;;;4993754;28;20631;-52
2022/07/11 04:28:32;;;;;;;342.17;158.90;;;;;;;;;;4994438;28;20682;-52
2022/07/11 04:30:58;;;;;;;362.20;167.90;;;;;;;;;;4990978;28;20225;-52
2022/07/11 04:33:24;;;;;;;341.53;157.43;;;;;;;;;;4996605;28;20181;-52
2022/07/11 04:35:50;;;;;;;369.57;165.27;;;;;;;;;;4990866;28;20200;-52
2022/07/11 04:38:16;;;;;;;392.63;175.47;;;;;;;;;;4988072;28;20221;-52
2022/07/11 04:40:42;;;;;;;332.13;156.17;;;;;;;;;;4992245;28;20220;-51
2022/07/11 04:43:08;;;;;;;406.70;181.17;;;;;;;;;;5002762;28;20217;-51
2022/07/11 04:45:34;;;;;;;431.93;189.80;;;;;;;;;;4983544;28;20519;-52
2022/07/11 04:48:01;;;;;;;359.67;165.87;;;;;;;;;;5001346;28;20212;-52
2022/07/11 04:50:27;;;;;;;354.60;162.60;;;;;;;;;;4984367;28;20581;-52
2022/07/11 04:52:53;;;;;;;381.50;173.43;;;;;;;;;;4992249;28;20217;-52
2022/07/11 04:55:19;;;;;;;366.53;170.00;;;;;;;;;;4993204;28;20541;-52
2022/07/11 04:57:45;;;;;;;341.77;158.27;;;;;;;;;;4993354;28;20270;-52
2022/07/11 05:00:11;;;;;;;389.13;176.90;;;;;;;;;;4989006;28;20189;-52
2022/07/11 05:02:37;;;;;;;345.30;161.03;;;;;;;;;;4989307;28;20836;-51
2022/07/11 05:05:03;;;;;;;351.60;162.77;;;;;;;;;;4990266;28;20319;-52
2022/07/11 05:07:29;;;;;;;323.20;150.73;;;;;;;;;;4993418;28;20416;-52
2022/07/11 05:09:55;;;;;;;373.47;165.60;;;;;;;;;;4994328;28;20251;-52
2022/07/11 05:12:21;;;;;;;351.83;159.50;;;;;;;;;;4997557;28;20204;-52
2022/07/11 05:14:47;;;;;;;310.77;143.57;;;;;;;;;;4999854;28;20184;-52
2022/07/11 05:17:13;;;;;;;378.07;164.33;;;;;;;;;;4994905;28;20224;-52
2022/07/11 05:19:38;;;;;;;333.67;152.83;;;;;;;;;;4987290;28;20752;-52
2022/07/11 05:22:05;;;;;;;600.30;243.40;;;;;;;;;;4981065;28;20682;-53
2022/07/11 05:24:31;;;;;;;363.00;170.93;;;;;;;;;;4991151;28;20188;-53
2022/07/11 05:26:57;;;;;;;420.10;195.80;;;;;;;;;;4988813;28;20259;-53
2022/07/11 05:29:23;;;;;;;360.53;167.27;;;;;;;;;;4989802;28;21339;-53
2022/07/11 05:31:50;;;;;;;384.33;180.90;;;;;;;;;;4987647;28;20212;-53
2022/07/11 05:34:17;;;;;;;372.93;174.87;;;;;;;;;;4984109;28;20218;-53
2022/07/11 05:36:43;;;;;;;400.83;182.60;;;;;;;;;;4987412;28;20275;-53
2022/07/11 05:39:09;;;;;;;325.97;157.80;;;;;;;;;;4988325;28;20200;-53
2022/07/11 05:41:35;;;;;;;313.07;150.43;;;;;;;;;;4989000;28;20768;-56
2022/07/11 05:44:01;;;;;;;293.93;140.20;;;;;;;;;;4991142;28;20217;-52
2022/07/11 05:46:27;;;;;;;380.70;176.07;;;;;;;;;;4995226;28;20655;-53
2022/07/11 05:48:53;;;;;;;348.07;165.07;;;;;;;;;;4991982;28;20232;-53
2022/07/11 05:51:19;;;;;;;394.83;187.37;;;;;;;;;;4992696;28;20201;-53
2022/07/11 05:53:45;;;;;;;317.73;155.47;;;;;;;;;;4984598;28;20181;-53
2022/07/11 05:56:11;;;;;;;309.40;156.53;;;;;;;;;;4979716;28;20235;-53
2022/07/11 05:58:37;;;;;;;363.53;171.70;;;;;;;;;;4979203;28;20213;-54
2022/07/11 06:01:03;;;;;;;353.23;174.93;;;;;;;;;;4991526;28;20209;-53
2022/07/11 06:03:29;;;;;;;352.17;172.50;;;;;;;;;;4989228;28;20523;-53
2022/07/11 06:05:55;;;;;;;383.60;196.47;;;;;;;;;;4985152;28;20177;-53
2022/07/11 06:11:06;;;;;;;312.37;163.20;;;;;;;;;;4991177;28;20230;-53
2022/07/11 06:13:32;;;;;;;425.60;201.87;;;;;;;;;;4984201;28;20225;-53
2022/07/11 06:15:58;;;;;;;391.40;202.10;;;;;;;;;;4982797;28;20657;-54
2022/07/11 06:18:24;;;;;;;310.27;161.47;;;;;;;;;;4994582;28;20239;-52
2022/07/11 06:20:51;;;;;;;302.93;158.73;;;;;;;;;;5006026;28;20184;-52
2022/07/11 06:23:17;;;;;;;303.23;162.33;;;;;;;;;;5000944;28;20304;-52
2022/07/11 06:25:43;;;;;;;296.73;156.30;;;;;;;;;;4999240;28;20764;-52
2022/07/11 06:28:09;;;;;;;292.97;153.90;;;;;;;;;;4998489;28;20754;-52
2022/07/11 06:30:36;;;;;;;294.27;154.30;;;;;;;;;;4999025;28;20212;-52
2022/07/11 06:33:03;;;;;;;389.37;185.97;;;;;;;;;;4988462;28;20183;-52
2022/07/11 06:35:29;;;;;;;243.50;133.17;;;;;;;;;;4993991;28;20299;-52
2022/07/11 06:37:56;;;;;;;277.37;149.80;;;;;;;;;;5004420;28;20214;-52
2022/07/11 06:40:22;;;;;;;283.97;150.77;;;;;;;;;;5002347;28;20480;-52
2022/07/11 06:42:48;;;;;;;257.20;141.20;;;;;;;;;;5008171;28;20212;-52
2022/07/11 06:45:15;;;;;;;284.73;154.07;;;;;;;;;;5002220;28;20173;-52
2022/07/11 06:47:41;;;;;;;253.70;142.77;;;;;;;;;;4994264;28;20646;-52
2022/07/11 06:50:07;;;;;;;274.03;149.97;;;;;;;;;;4996999;28;20229;-52
2022/07/11 06:52:33;;;;;;;296.93;159.50;;;;;;;;;;4990611;28;20279;-52
2022/07/11 06:54:59;;;;;;;240.97;137.67;;;;;;;;;;4999135;28;20217;-52
2022/07/11 06:57:25;;;;;;;252.00;144.67;;;;;;;;;;4998815;28;20216;-52
2022/07/11 06:59:51;;;;;;;202.70;126.10;;;;;;;;;;4999897;28;20684;-52
2022/07/11 07:02:17;;;;;;;232.30;136.90;;;;;;;;;;4995522;28;20212;-52
2022/07/11 07:04:43;;;;;;;188.30;120.53;;;;;;;;;;5000104;28;20209;-52
2022/07/11 07:07:09;;;;;;;220.27;134.90;;;;;;;;;;5000224;28;20632;-52
2022/07/11 07:09:35;;;;;;;218.03;133.07;;;;;;;;;;4998611;28;20182;-52
2022/07/11 07:12:01;;;;;;;171.23;116.82;;;;;;;;;;4997282;28;20263;-52
2022/07/11 07:14:26;;;;;;;207.43;128.43;;;;;;;;;;5000142;28;20209;-52
2022/07/11 07:16:52;;;;;;;215.35;130.63;;;;;;;;;;4999971;28;20305;-52
2022/07/11 07:19:18;;;;;;;228.15;135.90;;;;;;;;;;4996487;28;20286;-52
2022/07/11 07:21:44;;;;;;;229.47;142.33;;;;;;;;;;4995004;28;20216;-52
2022/07/11 07:24:10;;;;;;;211.02;141.68;;;;;;;;;;5000613;28;20185;-52
2022/07/11 07:26:36;;;;;;;185.93;129.63;;;;;;;;;;4997196;28;20216;-52
2022/07/11 07:29:02;;;;;;;201.52;136.40;;;;;;;;;;4998968;28;20220;-52
2022/07/11 07:31:28;;;;;;;206.80;134.60;;;;;;;;;;5003068;28;20307;-52
2022/07/11 07:33:54;;;;;;;198.57;129.10;;;;;;;;;;4999325;28;20249;-52
2022/07/11 07:36:20;;;;;;;217.45;133.13;;;;;;;;;;4999033;28;20586;-52
2022/07/11 07:38:49;;;;;;;201.43;129.20;;;;;;;;;;4995638;28;20209;-52
2022/07/11 07:41:45;;;;;;;147.30;121.13;;;;;;;;;;4997752;28;20244;-52
2022/07/11 07:44:11;;;;;;;229.73;144.38;;;;;;;;;;4981698;28;22347;-52
2022/07/11 07:46:37;;;;;;;211.60;129.25;;;;;;;;;;4984277;28;20209;-52
2022/07/11 07:49:03;;;;;;;251.80;143.43;;;;;;;;;;4982995;28;20217;-52
2022/07/11 07:51:30;;;;;;;258.58;138.88;;;;;;;;;;4984734;28;20582;-52
2022/07/11 07:53:56;;;;;;;296.85;159.00;;;;;;;;;;4993863;28;20965;-52
2022/07/11 07:56:22;;;;;;;289.88;166.73;;;;;;;;;;4979192;28;20359;-52
2022/07/11 07:58:48;;;;;;;308.70;158.23;;;;;;;;;;4985810;28;20240;-52
2022/07/11 08:04:00;;;;;;;240.80;140.00;;;;;;;;;;4989381;28;20222;-52
2022/07/11 08:06:26;;;;;;;257.98;153.10;;;;;;;;;;4983077;28;20481;-51
2022/07/11 08:08:52;;;;;;;264.92;147.60;;;;;;;;;;4983489;28;22816;-52
2022/07/11 08:11:18;;;;;;;305.00;152.55;;;;;;;;;;4994546;28;20208;-52
2022/07/11 08:13:44;;;;;;;287.70;160.00;;;;;;;;;;4991205;28;23578;-52
2022/07/11 08:16:10;;;;;;;317.40;181.20;;;;;;;;;;4988603;28;20225;-52
2022/07/11 08:18:36;;;;;;;301.83;175.23;;;;;;;;;;4987771;28;20523;-52
2022/07/11 08:21:02;;;;;;;230.93;149.18;;;;;;;;;;4988978;28;20177;-52
2022/07/11 08:23:28;;;;;;;317.63;183.38;;;;;;;;;;4986107;28;20225;-52
2022/07/11 08:25:54;;;;;;;277.17;169.38;;;;;;;;;;4991332;28;20224;-52
2022/07/11 08:28:20;;;;;;;241.70;156.77;;;;;;;;;;4991417;28;20311;-52
2022/07/11 08:30:46;;;;;;;257.38;167.73;;;;;;;;;;4992235;28;20288;-52
2022/07/11 08:33:13;;;;;;;269.67;162.57;;;;;;;;;;4991563;28;20177;-51
2022/07/11 08:35:39;;;;;;;262.83;156.23;;;;;;;;;;4991421;28;20229;-51
2022/07/11 08:38:05;;;;;;;237.85;149.68;;;;;;;;;;4992976;28;20682;-52
2022/07/11 08:40:31;;;;;;;304.85;174.18;;;;;;;;;;4997381;28;20283;-51
2022/07/11 08:42:58;;;;;;;277.92;166.85;;;;;;;;;;4992500;28;20254;-51
2022/07/11 08:45:29;;;;;;;273.27;174.68;;;;;;;;;;4990413;28;20720;-52
2022/07/11 08:47:55;;;;;;;243.48;161.25;;;;;;;;;;4995295;28;20295;-52
2022/07/11 08:50:21;;;;;;;302.15;185.02;;;;;;;;;;4994597;28;20282;-52
2022/07/11 08:52:47;;;;;;;294.08;178.20;;;;;;;;;;4993901;28;20228;-51
2022/07/11 08:55:13;;;;;;;351.33;199.32;;;;;;;;;;4990743;28;20217;-51
2022/07/11 08:57:39;;;;;;;319.30;187.68;;;;;;;;;;4985824;28;20267;-51
2022/07/11 09:00:08;;;;;;;361.17;203.02;;;;;;;;;;4991194;28;20213;-51
2022/07/11 09:02:34;;;;;;;304.63;179.48;;;;;;;;;;4988011;28;20219;-51
2022/07/11 09:05:05;;;;;;;334.92;192.68;;;;;;;;;;4994375;28;20213;-51
2022/07/11 09:07:32;;;;;;;367.98;197.07;;;;;;;;;;4985044;28;20236;-51
2022/07/11 09:09:58;;;;;;;304.60;172.45;;;;;;;;;;4997670;28;20213;-51
2022/07/11 09:12:24;;;;;;;392.20;204.43;;;;;;;;;;4988865;28;20566;-51
2022/07/11 09:14:53;;;;;;;357.60;181.48;;;;;;;;;;4994604;28;20328;-51
2022/07/11 09:17:26;;;;;;;393.90;194.00;;;;;;;;;;4988343;28;20316;-51
2022/07/11 09:19:52;;;;;;;374.77;190.23;;;;;;;;;;4990345;28;20574;-51
2022/07/11 09:28:07;;;;;;;328.40;173.57;;;;;;;;;;4968666;28;20287;-51
2022/07/11 09:30:35;;;;;;;357.30;188.13;;;;;;;;;;4993417;28;20200;-51
2022/07/11 09:33:01;;;;;;;348.38;182.73;;;;;;;;;;4994047;28;20231;-51
2022/07/11 09:35:28;;;;;;;472.88;236.30;;;;;;;;;;4991586;28;20218;-51
2022/07/11 09:37:54;;;;;;;402.63;205.95;;;;;;;;;;4994631;28;20789;-51
2022/07/11 09:40:25;;;;;;;401.88;205.43;;;;;;;;;;4991880;28;20770;-51
2022/07/11 09:42:55;;;;;;;381.63;201.27;;;;;;;;;;4998850;28;20236;-51
2022/07/11 09:45:22;;;;;;;377.00;195.00;;;;;;;;;;4997405;28;20209;-51
2022/07/11 09:47:48;;;;;;;400.92;211.63;;;;;;;;;;4991978;28;20229;-51
2022/07/11 09:50:24;;;;;;;373.42;202.02;;;;;;;;;;4997818;28;20682;-51
2022/07/11 09:52:59;;;;;;;392.80;207.15;;;;;;;;;;4990713;28;20208;-51
2022/07/11 09:55:26;;;;;;;401.88;204.48;;;;;;;;;;4993168;28;20220;-51
2022/07/11 09:57:52;;;;;;;377.95;201.18;;;;;;;;;;4992642;28;20220;-51
2022/07/11 10:00:18;;;;;;;405.65;213.60;;;;;;;;;;4993041;28;20292;-51
2022/07/11 10:02:45;;;;;;;400.20;209.77;;;;;;;;;;4996348;28;20345;-51
2022/07/11 10:05:11;;;;;;;355.25;187.88;;;;;;;;;;4988537;28;20248;-51
2022/07/11 10:07:37;;;;;;;360.10;189.10;;;;;;;;;;4997361;28;20681;-51
2022/07/11 10:10:04;;;;;;;350.25;189.68;;;;;;;;;;4995282;28;20234;-52
2022/07/11 10:12:31;;;;;;;366.90;199.88;;;;;;;;;;4995741;28;20181;-51
2022/07/11 10:14:59;;;;;;;527.85;258.70;;;;;;;;;;4979831;28;20369;-51
2022/07/11 10:17:31;;;;;;;438.23;234.98;;;;;;;;;;4978918;28;20457;-51
2022/07/11 10:20:00;;;;;;;449.13;241.80;;;;;;;;;;4980384;28;20220;-51
2022/07/11 10:22:29;;;;;;;442.20;226.77;;;;;;;;;;4984489;28;20303;-51
2022/07/11 10:24:55;;;;;;;428.75;221.68;;;;;;;;;;4985965;28;20213;-51
2022/07/11 10:27:37;;;;;;;438.40;224.05;;;;;;;;;;4979143;28;20613;-51
2022/07/11 10:30:03;;;;;;;383.63;197.75;;;;;;;;;;4965928;28;20229;-51
2022/07/11 10:32:29;;;;;;;396.00;210.77;;;;;;;;;;4964197;28;20582;-51
2022/07/11 10:35:08;;;;;;;376.50;208.38;;;;;;;;;;4973231;28;20232;-51
2022/07/11 10:37:51;;;;;;;449.17;233.52;;;;;;;;;;4968677;28;20233;-51
2022/07/11 10:40:37;;;;;;;478.77;245.05;;;;;;;;;;4958032;28;20229;-51
2022/07/11 10:43:03;;;;;;;411.27;215.18;;;;;;;;;;4969702;28;20241;-51
2022/07/11 10:45:29;;;;;;;434.73;223.43;;;;;;;;;;4972940;28;20236;-51
2022/07/11 10:48:10;;;;;;;442.20;231.07;;;;;;;;;;4983582;28;20342;-51
2022/07/11 10:50:38;;;;;;;403.23;215.10;;;;;;;;;;4990581;28;20590;-51
2022/07/11 10:53:11;;;;;;;476.42;243.95;;;;;;;;;;4986541;28;20475;-51
2022/07/11 10:55:44;;;;;;;511.33;253.25;;;;;;;;;;4987931;28;20291;-51
2022/07/11 10:58:23;;;;;;;462.95;234.32;;;;;;;;;;4982400;28;20705;-51
2022/07/11 11:00:50;;;;;;;435.30;227.98;;;;;;;;;;4986121;28;20232;-51
2022/07/11 11:03:18;;;;;;;422.30;217.98;;;;;;;;;;4988275;28;20176;-51
2022/07/11 11:05:54;;;;;;;452.65;235.38;;;;;;;;;;4984430;28;20615;-51
2022/07/11 11:08:35;;;;;;;485.75;265.27;;;;;;;;;;4985983;28;20227;-51
2022/07/11 11:11:02;;;;;;;540.00;281.73;;;;;;;;;;4981195;28;20225;-51
2022/07/11 11:13:28;;;;;;;486.40;262.48;;;;;;;;;;4987459;28;20248;-51
2022/07/11 11:15:54;;;;;;;441.67;241.23;;;;;;;;;;4993002;28;20590;-51
2022/07/11 11:18:20;;;;;;;456.05;250.60;;;;;;;;;;4989520;28;20178;-52
2022/07/11 11:20:46;;;;;;;439.75;238.75;;;;;;;;;;4985889;28;20225;-52
2022/07/11 11:23:12;;;;;;;382.13;218.75;;;;;;;;;;4987055;28;20718;-51
2022/07/11 11:25:38;;;;;;;502.63;265.73;;;;;;;;;;4987453;28;20734;-51
2022/07/11 11:28:05;;;;;;;430.85;228.23;;;;;;;;;;4992118;28;20570;-51
2022/07/11 11:30:33;;;;;;;400.77;216.25;;;;;;;;;;4993240;28;20192;-51
2022/07/11 11:32:59;;;;;;;436.10;225.68;;;;;;;;;;4960644;28;20226;-51
2022/07/11 11:35:25;;;;;;;450.10;233.25;;;;;;;;;;4961539;28;20232;-51
2022/07/11 11:37:52;;;;;;;446.92;236.13;;;;;;;;;;4959810;28;20286;-51
2022/07/11 11:40:18;;;;;;;440.08;235.82;;;;;;;;;;4964360;28;20268;-51
2022/07/11 11:42:44;;;;;;;439.92;243.75;;;;;;;;;;4971253;28;20278;-51
2022/07/11 11:45:12;;;;;;;459.27;242.68;;;;;;;;;;4986160;28;20225;-51
2022/07/11 11:47:47;;;;;;;441.90;235.90;;;;;;;;;;4987035;28;20259;-51
2022/07/11 11:50:13;;;;;;;422.38;233.80;;;;;;;;;;4991595;28;20475;-51
2022/07/11 11:52:39;;;;;;;371.80;218.23;;;;;;;;;;4990141;28;20227;-51
2022/07/11 11:55:09;;;;;;;392.80;226.73;;;;;;;;;;4986159;28;20609;-51
2022/07/11 11:57:34;;;;;;;491.02;272.45;;;;;;;;;;4983050;28;20742;-52
2022/07/11 12:00:00;;;;;;;453.35;242.60;;;;;;;;;;4980707;28;20279;-51
2022/07/11 12:02:27;;;;;;;482.05;250.65;;;;;;;;;;4981007;28;20220;-51
2022/07/11 12:04:54;;;;;;;466.67;246.45;;;;;;;;;;4983650;28;20209;-51
2022/07/11 12:07:24;;;;;;;367.38;204.07;;;;;;;;;;4990322;28;20231;-51
2022/07/11 12:09:52;;;;;;;368.60;217.65;;;;;;;;;;4992135;28;20209;-52
2022/07/11 12:15:04;;;;;;;357.45;214.25;;;;;;;;;;4993805;28;20220;-51
2022/07/11 12:17:30;;;;;;;375.30;214.48;;;;;;;;;;4992845;28;20236;-51
2022/07/11 12:19:56;;;;;;;417.85;225.00;;;;;;;;;;4991092;28;20256;-51
2022/07/11 12:22:22;;;;;;;435.17;227.77;;;;;;;;;;4984256;28;20209;-51
2022/07/11 12:24:49;;;;;;;448.67;230.70;;;;;;;;;;4980802;28;20247;-51
2022/07/11 12:27:25;;;;;;;403.77;222.70;;;;;;;;;;4986002;28;20208;-51
2022/07/11 12:29:52;;;;;;;404.73;222.10;;;;;;;;;;4993609;28;20574;-51
2022/07/11 12:32:18;;;;;;;410.73;230.25;;;;;;;;;;4982604;28;20312;-52
2022/07/11 12:34:45;;;;;;;414.35;231.38;;;;;;;;;;4986198;28;20240;-52
2022/07/11 12:37:16;;;;;;;389.92;211.73;;;;;;;;;;4987160;28;20213;-52
2022/07/11 12:39:53;;;;;;;390.27;213.70;;;;;;;;;;4994484;28;20287;-52
2022/07/11 12:42:29;;;;;;;467.02;246.57;;;;;;;;;;4994236;28;20283;-51
2022/07/11 12:44:59;;;;;;;399.30;218.45;;;;;;;;;;4993997;28;20228;-52
2022/07/11 12:47:27;;;;;;;496.05;261.15;;;;;;;;;;4983488;28;20324;-52
2022/07/11 12:49:53;;;;;;;451.42;249.45;;;;;;;;;;4987465;28;20221;-52
2022/07/11 12:52:19;;;;;;;372.77;208.55;;;;;;;;;;4986789;28;20215;-52
2022/07/11 12:54:45;;;;;;;367.27;211.43;;;;;;;;;;4993980;28;20213;-52
2022/07/11 12:57:15;;;;;;;352.52;203.25;;;;;;;;;;4994734;28;20198;-52
2022/07/11 12:59:41;;;;;;;383.13;215.00;;;;;;;;;;4991776;28;20215;-52
2022/07/11 13:02:08;;;;;;;359.33;202.75;;;;;;;;;;4996375;28;20221;-52
2022/07/11 13:04:34;;;;;;;357.33;202.13;;;;;;;;;;4992607;28;20303;-52
2022/07/11 13:10:07;;;;;;;400.35;222.38;;;;;;;;;;4995745;28;20252;-52
2022/07/11 13:12:33;;;;;;;430.48;239.20;;;;;;;;;;4983339;28;20657;-52
2022/07/11 13:15:10;;;;;;;351.88;199.82;;;;;;;;;;4988807;28;20342;-52
2022/07/11 13:17:43;;;;;;;423.30;242.63;;;;;;;;;;4992395;28;20233;-52
2022/07/11 13:20:14;;;;;;;382.67;220.20;;;;;;;;;;4991634;28;20540;-52
2022/07/11 13:22:41;;;;;;;416.73;225.45;;;;;;;;;;4989876;28;20227;-52
2022/07/11 13:25:07;;;;;;;352.35;203.48;;;;;;;;;;4990361;28;20212;-52
2022/07/11 13:27:33;;;;;;;376.60;222.00;;;;;;;;;;5000195;28;20197;-52
2022/07/11 13:29:59;;;;;;;421.50;237.05;;;;;;;;;;4990400;28;20200;-52
2022/07/11 13:32:26;;;;;;;393.85;221.88;;;;;;;;;;4999147;28;20223;-52
2022/07/11 13:34:52;;;;;;;381.63;217.57;;;;;;;;;;4996835;28;20224;-52
2022/07/11 13:37:18;;;;;;;399.77;225.07;;;;;;;;;;4987364;28;20231;-52
2022/07/11 13:39:44;;;;;;;360.23;214.80;;;;;;;;;;4994087;28;20300;-52
2022/07/11 13:42:10;;;;;;;449.23;260.25;;;;;;;;;;4990754;28;20685;-52
2022/07/11 13:44:36;;;;;;;440.60;255.48;;;;;;;;;;4990127;28;20225;-52
2022/07/11 13:47:02;;;;;;;372.55;230.73;;;;;;;;;;4989139;28;20218;-52
2022/07/11 13:49:29;;;;;;;368.75;226.60;;;;;;;;;;4995274;28;20276;-52
2022/07/11 13:51:55;;;;;;;370.98;246.80;;;;;;;;;;4990850;28;20217;-52
2022/07/11 13:54:21;;;;;;;451.20;269.15;;;;;;;;;;4992671;28;20181;-52
2022/07/11 13:56:47;;;;;;;429.75;266.58;;;;;;;;;;4982434;28;20263;-52
2022/07/11 13:59:13;;;;;;;474.33;286.98;;;;;;;;;;4987969;28;20210;-52
2022/07/11 14:01:39;;;;;;;386.90;252.82;;;;;;;;;;4990334;28;20625;-52
2022/07/11 14:04:05;;;;;;;371.70;244.15;;;;;;;;;;4998897;28;20218;-52
2022/07/11 14:06:31;;;;;;;383.52;258.52;;;;;;;;;;4994975;28;20197;-52
2022/07/11 14:08:57;;;;;;;462.73;290.30;;;;;;;;;;4986010;28;20182;-52